sensor_id;sensor_type;location;lat;lon;timestamp;temperature;humidity
4635;DHT22;2330;48.158;11.816;2024-03-02T00:00:27;5.80;98.50
4635;DHT22;2330;48.158;11.816;2024-03-02T00:02:54;5.80;98.50
4635;DHT22;2330;48.158;11.816;2024-03-02T00:05:22;5.80;98.50
4635;DHT22;2330;48.158;11.816;2024-03-02T00:07:57;5.80;98.50
4635;DHT22;2330;48.158;11.816;2024-03-02T00:10:38;5.80;98.50
4635;DHT22;2330;48.158;11.816;2024-03-02T00:13:13;5.80;98.50
4635;DHT22;2330;48.158;11.816;2024-03-02T00:15:47;5.80;98.50
4635;DHT22;2330;48.158;11.816;2024-03-02T00:18:19;5.70;98.50
4635;DHT22;2330;48.158;11.816;2024-03-02T00:20:47;5.70;98.50
4635;DHT22;2330;48.158;11.816;2024-03-02T00:23:17;5.80;98.50
4635;DHT22;2330;48.158;11.816;2024-03-02T00:25:53;5.90;98.50
4635;DHT22;2330;48.158;11.816;2024-03-02T00:28:35;5.90;98.50
4635;DHT22;2330;48.158;11.816;2024-03-02T00:31:07;5.80;98.50
4635;DHT22;2330;48.158;11.816;2024-03-02T00:33:36;5.70;98.50
4635;DHT22;2330;48.158;11.816;2024-03-02T00:36:05;5.60;98.50
4635;DHT22;2330;48.158;11.816;2024-03-02T00:38:34;5.60;98.50
4635;DHT22;2330;48.158;11.816;2024-03-02T00:41:05;5.50;98.50
4635;DHT22;2330;48.158;11.816;2024-03-02T00:44:04;5.50;98.50
4635;DHT22;2330;48.158;11.816;2024-03-02T00:46:37;5.40;98.50
4635;DHT22;2330;48.158;11.816;2024-03-02T00:51:33;5.40;98.50
4635;DHT22;2330;48.158;11.816;2024-03-02T00:54:07;5.40;98.50
4635;DHT22;2330;48.158;11.816;2024-03-02T00:56:35;5.40;98.50
4635;DHT22;2330;48.158;11.816;2024-03-02T00:59:08;5.40;98.50
4635;DHT22;2330;48.158;11.816;2024-03-02T01:01:35;5.40;98.50
4635;DHT22;2330;48.158;11.816;2024-03-02T01:04:02;5.40;98.50
4635;DHT22;2330;48.158;11.816;2024-03-02T01:06:30;5.40;98.50
4635;DHT22;2330;48.158;11.816;2024-03-02T01:08:57;5.40;98.50
4635;DHT22;2330;48.158;11.816;2024-03-02T01:11:24;5.40;98.50
4635;DHT22;2330;48.158;11.816;2024-03-02T01:13:51;5.50;98.50
4635;DHT22;2330;48.158;11.816;2024-03-02T01:16:21;5.50;98.50
4635;DHT22;2330;48.158;11.816;2024-03-02T01:18:48;5.50;98.50
4635;DHT22;2330;48.158;11.816;2024-03-02T01:21:15;5.50;98.50
4635;DHT22;2330;48.158;11.816;2024-03-02T01:23:42;5.50;98.50
4635;DHT22;2330;48.158;11.816;2024-03-02T01:26:09;5.60;98.50
4635;DHT22;2330;48.158;11.816;2024-03-02T01:28:36;5.60;98.50
4635;DHT22;2330;48.158;11.816;2024-03-02T01:31:02;5.60;98.50
4635;DHT22;2330;48.158;11.816;2024-03-02T01:33:29;5.60;98.50
4635;DHT22;2330;48.158;11.816;2024-03-02T01:35:56;5.60;98.50
4635;DHT22;2330;48.158;11.816;2024-03-02T01:38:23;5.60;98.50
4635;DHT22;2330;48.158;11.816;2024-03-02T01:40:50;5.60;98.50
4635;DHT22;2330;48.158;11.816;2024-03-02T01:43:18;5.60;98.50
4635;DHT22;2330;48.158;11.816;2024-03-02T01:45:45;5.60;98.50
4635;DHT22;2330;48.158;11.816;2024-03-02T01:48:11;5.60;98.50
4635;DHT22;2330;48.158;11.816;2024-03-02T01:50:39;5.60;98.50
4635;DHT22;2330;48.158;11.816;2024-03-02T01:53:05;5.60;98.50
4635;DHT22;2330;48.158;11.816;2024-03-02T01:55:33;5.60;98.50
4635;DHT22;2330;48.158;11.816;2024-03-02T01:58:01;5.60;98.50
4635;DHT22;2330;48.158;11.816;2024-03-02T02:00:28;5.60;98.50
4635;DHT22;2330;48.158;11.816;2024-03-02T02:02:56;5.60;98.50
4635;DHT22;2330;48.158;11.816;2024-03-02T02:05:24;5.60;98.50
4635;DHT22;2330;48.158;11.816;2024-03-02T02:07:51;5.60;98.50
4635;DHT22;2330;48.158;11.816;2024-03-02T02:10:18;5.60;98.50
4635;DHT22;2330;48.158;11.816;2024-03-02T02:12:45;5.50;98.50
4635;DHT22;2330;48.158;11.816;2024-03-02T02:15:30;5.50;98.50
4635;DHT22;2330;48.158;11.816;2024-03-02T02:17:58;5.50;98.50
4635;DHT22;2330;48.158;11.816;2024-03-02T02:20:25;5.40;98.50
4635;DHT22;2330;48.158;11.816;2024-03-02T02:23:02;5.40;98.50
4635;DHT22;2330;48.158;11.816;2024-03-02T02:25:29;5.40;98.50
4635;DHT22;2330;48.158;11.816;2024-03-02T02:27:57;5.40;98.50
4635;DHT22;2330;48.158;11.816;2024-03-02T02:30:26;5.40;98.50
4635;DHT22;2330;48.158;11.816;2024-03-02T02:32:54;5.40;98.50
4635;DHT22;2330;48.158;11.816;2024-03-02T02:35:21;5.40;98.50
4635;DHT22;2330;48.158;11.816;2024-03-02T02:37:49;5.40;98.50
4635;DHT22;2330;48.158;11.816;2024-03-02T02:40:17;5.40;98.50
4635;DHT22;2330;48.158;11.816;2024-03-02T02:42:46;5.30;98.50
4635;DHT22;2330;48.158;11.816;2024-03-02T02:45:13;5.20;98.50
4635;DHT22;2330;48.158;11.816;2024-03-02T02:47:42;5.20;98.50
4635;DHT22;2330;48.158;11.816;2024-03-02T02:50:11;5.20;98.50
4635;DHT22;2330;48.158;11.816;2024-03-02T02:52:40;5.20;98.50
4635;DHT22;2330;48.158;11.816;2024-03-02T02:55:09;5.20;98.50
4635;DHT22;2330;48.158;11.816;2024-03-02T02:57:37;5.20;98.50
4635;DHT22;2330;48.158;11.816;2024-03-02T03:00:07;5.20;98.50
4635;DHT22;2330;48.158;11.816;2024-03-02T03:02:45;5.10;98.50
4635;DHT22;2330;48.158;11.816;2024-03-02T03:05:14;5.20;98.50
4635;DHT22;2330;48.158;11.816;2024-03-02T03:07:41;5.20;98.50
4635;DHT22;2330;48.158;11.816;2024-03-02T03:10:09;5.10;98.50
4635;DHT22;2330;48.158;11.816;2024-03-02T03:12:36;5.20;98.50
4635;DHT22;2330;48.158;11.816;2024-03-02T03:15:04;5.10;98.50
4635;DHT22;2330;48.158;11.816;2024-03-02T03:17:35;5.10;98.50
4635;DHT22;2330;48.158;11.816;2024-03-02T03:20:04;5.10;98.50
4635;DHT22;2330;48.158;11.816;2024-03-02T03:22:32;5.20;98.50
4635;DHT22;2330;48.158;11.816;2024-03-02T03:24:59;5.20;98.50
4635;DHT22;2330;48.158;11.816;2024-03-02T03:27:26;5.10;98.50
4635;DHT22;2330;48.158;11.816;2024-03-02T03:29:54;5.10;98.50
4635;DHT22;2330;48.158;11.816;2024-03-02T03:32:21;5.10;98.50
4635;DHT22;2330;48.158;11.816;2024-03-02T03:34:48;5.20;98.50
4635;DHT22;2330;48.158;11.816;2024-03-02T03:37:15;5.20;98.50
4635;DHT22;2330;48.158;11.816;2024-03-02T03:39:42;5.20;98.50
4635;DHT22;2330;48.158;11.816;2024-03-02T03:42:09;5.20;98.50
4635;DHT22;2330;48.158;11.816;2024-03-02T03:44:36;5.20;98.50
4635;DHT22;2330;48.158;11.816;2024-03-02T03:47:03;5.30;98.50
4635;DHT22;2330;48.158;11.816;2024-03-02T03:49:30;5.20;98.50
4635;DHT22;2330;48.158;11.816;2024-03-02T03:51:57;5.20;98.50
4635;DHT22;2330;48.158;11.816;2024-03-02T03:54:23;5.20;98.50
4635;DHT22;2330;48.158;11.816;2024-03-02T03:56:50;5.20;98.50
4635;DHT22;2330;48.158;11.816;2024-03-02T03:59:17;5.30;98.50
4635;DHT22;2330;48.158;11.816;2024-03-02T04:01:44;5.20;98.50
4635;DHT22;2330;48.158;11.816;2024-03-02T04:04:11;5.30;98.50
4635;DHT22;2330;48.158;11.816;2024-03-02T04:06:38;5.30;98.50
4635;DHT22;2330;48.158;11.816;2024-03-02T04:09:04;5.30;98.50
4635;DHT22;2330;48.158;11.816;2024-03-02T04:11:31;5.30;98.50
4635;DHT22;2330;48.158;11.816;2024-03-02T04:13:58;5.30;98.50
4635;DHT22;2330;48.158;11.816;2024-03-02T04:16:25;5.30;98.50
4635;DHT22;2330;48.158;11.816;2024-03-02T04:18:52;5.30;98.50
4635;DHT22;2330;48.158;11.816;2024-03-02T04:21:19;5.30;98.50
4635;DHT22;2330;48.158;11.816;2024-03-02T04:23:45;5.30;98.50
4635;DHT22;2330;48.158;11.816;2024-03-02T04:26:12;5.30;98.50
4635;DHT22;2330;48.158;11.816;2024-03-02T04:28:39;5.30;98.50
4635;DHT22;2330;48.158;11.816;2024-03-02T04:31:06;5.30;98.50
4635;DHT22;2330;48.158;11.816;2024-03-02T04:33:33;5.30;98.50
4635;DHT22;2330;48.158;11.816;2024-03-02T04:35:59;5.30;98.50
4635;DHT22;2330;48.158;11.816;2024-03-02T04:38:26;5.30;98.50
4635;DHT22;2330;48.158;11.816;2024-03-02T04:40:53;5.30;98.50
4635;DHT22;2330;48.158;11.816;2024-03-02T04:43:20;5.30;98.50
4635;DHT22;2330;48.158;11.816;2024-03-02T04:45:47;5.30;98.50
4635;DHT22;2330;48.158;11.816;2024-03-02T04:48:13;5.40;98.50
4635;DHT22;2330;48.158;11.816;2024-03-02T04:50:41;5.40;98.50
4635;DHT22;2330;48.158;11.816;2024-03-02T04:53:08;5.40;98.50
4635;DHT22;2330;48.158;11.816;2024-03-02T04:55:35;5.40;98.50
4635;DHT22;2330;48.158;11.816;2024-03-02T04:58:01;5.40;98.50
4635;DHT22;2330;48.158;11.816;2024-03-02T05:00:28;5.40;98.50
4635;DHT22;2330;48.158;11.816;2024-03-02T05:02:55;5.40;98.50
4635;DHT22;2330;48.158;11.816;2024-03-02T05:05:22;5.40;98.50
4635;DHT22;2330;48.158;11.816;2024-03-02T05:07:49;5.40;98.50
4635;DHT22;2330;48.158;11.816;2024-03-02T05:10:16;5.30;98.50
4635;DHT22;2330;48.158;11.816;2024-03-02T05:12:42;5.30;98.50
4635;DHT22;2330;48.158;11.816;2024-03-02T05:15:11;5.30;98.50
4635;DHT22;2330;48.158;11.816;2024-03-02T05:17:38;5.30;98.50
4635;DHT22;2330;48.158;11.816;2024-03-02T05:20:06;5.30;98.50
4635;DHT22;2330;48.158;11.816;2024-03-02T05:22:37;5.30;98.50
4635;DHT22;2330;48.158;11.816;2024-03-02T05:25:04;5.30;98.50
4635;DHT22;2330;48.158;11.816;2024-03-02T05:27:31;5.30;98.50
4635;DHT22;2330;48.158;11.816;2024-03-02T05:30:01;5.30;98.50
4635;DHT22;2330;48.158;11.816;2024-03-02T05:32:28;5.30;98.50
4635;DHT22;2330;48.158;11.816;2024-03-02T05:34:55;5.40;98.50
4635;DHT22;2330;48.158;11.816;2024-03-02T05:37:22;5.50;98.50
4635;DHT22;2330;48.158;11.816;2024-03-02T05:39:49;5.50;98.50
4635;DHT22;2330;48.158;11.816;2024-03-02T05:42:16;5.40;98.50
4635;DHT22;2330;48.158;11.816;2024-03-02T05:44:46;5.40;98.50
4635;DHT22;2330;48.158;11.816;2024-03-02T05:47:12;5.40;98.50
4635;DHT22;2330;48.158;11.816;2024-03-02T05:49:39;5.40;98.50
4635;DHT22;2330;48.158;11.816;2024-03-02T05:52:06;5.30;98.50
4635;DHT22;2330;48.158;11.816;2024-03-02T05:54:33;5.30;98.50
4635;DHT22;2330;48.158;11.816;2024-03-02T05:57:00;5.30;98.50
4635;DHT22;2330;48.158;11.816;2024-03-02T05:59:43;5.30;98.50
4635;DHT22;2330;48.158;11.816;2024-03-02T06:02:10;5.30;98.50
4635;DHT22;2330;48.158;11.816;2024-03-02T06:04:37;5.30;98.50
4635;DHT22;2330;48.158;11.816;2024-03-02T06:07:04;5.30;98.50
4635;DHT22;2330;48.158;11.816;2024-03-02T06:09:30;5.20;98.50
4635;DHT22;2330;48.158;11.816;2024-03-02T06:11:57;5.30;98.50
4635;DHT22;2330;48.158;11.816;2024-03-02T06:14:24;5.20;98.50
4635;DHT22;2330;48.158;11.816;2024-03-02T06:16:51;5.20;98.50
4635;DHT22;2330;48.158;11.816;2024-03-02T06:19:18;5.20;98.50
4635;DHT22;2330;48.158;11.816;2024-03-02T06:21:44;5.30;98.50
4635;DHT22;2330;48.158;11.816;2024-03-02T06:24:11;5.30;98.50
4635;DHT22;2330;48.158;11.816;2024-03-02T06:26:38;5.30;98.50
4635;DHT22;2330;48.158;11.816;2024-03-02T06:29:06;5.30;98.50
4635;DHT22;2330;48.158;11.816;2024-03-02T06:31:33;5.30;98.50
4635;DHT22;2330;48.158;11.816;2024-03-02T06:34:00;5.30;98.50
4635;DHT22;2330;48.158;11.816;2024-03-02T06:36:27;5.30;98.50
4635;DHT22;2330;48.158;11.816;2024-03-02T06:38:54;5.30;98.50
4635;DHT22;2330;48.158;11.816;2024-03-02T06:41:21;5.40;98.50
4635;DHT22;2330;48.158;11.816;2024-03-02T06:43:47;5.40;98.50
4635;DHT22;2330;48.158;11.816;2024-03-02T06:46:14;5.40;98.50
4635;DHT22;2330;48.158;11.816;2024-03-02T06:48:41;5.40;98.50
4635;DHT22;2330;48.158;11.816;2024-03-02T06:51:08;5.40;98.50
4635;DHT22;2330;48.158;11.816;2024-03-02T06:53:35;5.50;98.50
4635;DHT22;2330;48.158;11.816;2024-03-02T06:56:02;5.50;98.50
4635;DHT22;2330;48.158;11.816;2024-03-02T06:58:29;5.50;98.50
4635;DHT22;2330;48.158;11.816;2024-03-02T07:00:55;5.60;98.50
4635;DHT22;2330;48.158;11.816;2024-03-02T07:03:22;5.70;98.50
4635;DHT22;2330;48.158;11.816;2024-03-02T07:05:49;5.80;98.50
4635;DHT22;2330;48.158;11.816;2024-03-02T07:08:16;5.80;98.50
4635;DHT22;2330;48.158;11.816;2024-03-02T07:10:43;5.90;98.50
4635;DHT22;2330;48.158;11.816;2024-03-02T07:13:10;6.00;98.50
4635;DHT22;2330;48.158;11.816;2024-03-02T07:15:36;6.00;98.50
4635;DHT22;2330;48.158;11.816;2024-03-02T07:18:03;6.00;98.50
4635;DHT22;2330;48.158;11.816;2024-03-02T07:20:31;6.00;98.50
4635;DHT22;2330;48.158;11.816;2024-03-02T07:22:57;6.10;98.50
4635;DHT22;2330;48.158;11.816;2024-03-02T07:25:24;6.20;98.50
4635;DHT22;2330;48.158;11.816;2024-03-02T07:27:54;6.20;98.50
4635;DHT22;2330;48.158;11.816;2024-03-02T07:30:21;6.30;98.50
4635;DHT22;2330;48.158;11.816;2024-03-02T07:32:50;6.40;98.50
4635;DHT22;2330;48.158;11.816;2024-03-02T07:35:17;6.50;98.50
4635;DHT22;2330;48.158;11.816;2024-03-02T07:37:44;6.50;98.50
4635;DHT22;2330;48.158;11.816;2024-03-02T07:40:12;6.50;98.50
4635;DHT22;2330;48.158;11.816;2024-03-02T07:42:39;6.50;98.50
4635;DHT22;2330;48.158;11.816;2024-03-02T07:45:07;6.50;98.50
4635;DHT22;2330;48.158;11.816;2024-03-02T07:47:34;6.50;98.50
4635;DHT22;2330;48.158;11.816;2024-03-02T07:50:02;6.60;98.50
4635;DHT22;2330;48.158;11.816;2024-03-02T07:52:29;6.70;98.50
4635;DHT22;2330;48.158;11.816;2024-03-02T07:54:56;6.70;98.50
4635;DHT22;2330;48.158;11.816;2024-03-02T07:57:23;6.60;98.50
4635;DHT22;2330;48.158;11.816;2024-03-02T07:59:50;6.70;98.50
4635;DHT22;2330;48.158;11.816;2024-03-02T08:02:17;6.70;98.50
4635;DHT22;2330;48.158;11.816;2024-03-02T08:04:44;6.60;98.50
4635;DHT22;2330;48.158;11.816;2024-03-02T08:07:12;6.50;98.50
4635;DHT22;2330;48.158;11.816;2024-03-02T08:09:39;6.60;98.50
4635;DHT22;2330;48.158;11.816;2024-03-02T08:12:06;6.80;98.50
4635;DHT22;2330;48.158;11.816;2024-03-02T08:14:33;6.80;98.50
4635;DHT22;2330;48.158;11.816;2024-03-02T08:17:00;6.90;98.50
4635;DHT22;2330;48.158;11.816;2024-03-02T08:19:28;7.00;98.50
4635;DHT22;2330;48.158;11.816;2024-03-02T08:21:55;7.10;98.50
4635;DHT22;2330;48.158;11.816;2024-03-02T08:24:22;7.20;98.50
4635;DHT22;2330;48.158;11.816;2024-03-02T08:26:49;7.30;98.50
4635;DHT22;2330;48.158;11.816;2024-03-02T08:29:15;7.40;98.50
4635;DHT22;2330;48.158;11.816;2024-03-02T08:31:42;7.20;98.50
4635;DHT22;2330;48.158;11.816;2024-03-02T08:34:09;7.00;98.50
4635;DHT22;2330;48.158;11.816;2024-03-02T08:36:36;7.00;98.50
4635;DHT22;2330;48.158;11.816;2024-03-02T08:39:03;7.10;98.50
4635;DHT22;2330;48.158;11.816;2024-03-02T08:41:33;7.20;98.50
4635;DHT22;2330;48.158;11.816;2024-03-02T08:44:00;7.30;98.50
4635;DHT22;2330;48.158;11.816;2024-03-02T08:46:27;7.50;98.50
4635;DHT22;2330;48.158;11.816;2024-03-02T08:48:54;7.70;98.50
4635;DHT22;2330;48.158;11.816;2024-03-02T08:51:21;7.80;98.50
4635;DHT22;2330;48.158;11.816;2024-03-02T08:53:48;7.90;98.50
4635;DHT22;2330;48.158;11.816;2024-03-02T08:56:15;7.60;98.50
4635;DHT22;2330;48.158;11.816;2024-03-02T08:58:43;7.70;98.50
4635;DHT22;2330;48.158;11.816;2024-03-02T09:01:10;7.60;98.50
4635;DHT22;2330;48.158;11.816;2024-03-02T09:03:37;7.50;98.50
4635;DHT22;2330;48.158;11.816;2024-03-02T09:06:04;7.40;98.50
4635;DHT22;2330;48.158;11.816;2024-03-02T09:08:32;7.70;98.50
4635;DHT22;2330;48.158;11.816;2024-03-02T09:10:59;8.10;98.50
4635;DHT22;2330;48.158;11.816;2024-03-02T09:13:26;8.30;98.50
4635;DHT22;2330;48.158;11.816;2024-03-02T09:15:52;8.30;98.50
4635;DHT22;2330;48.158;11.816;2024-03-02T09:18:19;8.40;98.50
4635;DHT22;2330;48.158;11.816;2024-03-02T09:20:46;8.60;98.50
4635;DHT22;2330;48.158;11.816;2024-03-02T09:23:13;9.00;98.50
4635;DHT22;2330;48.158;11.816;2024-03-02T09:25:40;9.30;98.50
4635;DHT22;2330;48.158;11.816;2024-03-02T09:28:07;9.10;98.50
4635;DHT22;2330;48.158;11.816;2024-03-02T09:30:34;9.30;98.50
4635;DHT22;2330;48.158;11.816;2024-03-02T09:33:01;9.60;98.50
4635;DHT22;2330;48.158;11.816;2024-03-02T09:35:31;9.80;98.50
4635;DHT22;2330;48.158;11.816;2024-03-02T09:37:58;10.00;98.50
4635;DHT22;2330;48.158;11.816;2024-03-02T09:40:25;10.00;98.50
4635;DHT22;2330;48.158;11.816;2024-03-02T09:42:52;10.00;98.50
4635;DHT22;2330;48.158;11.816;2024-03-02T09:45:24;9.80;98.50
4635;DHT22;2330;48.158;11.816;2024-03-02T09:47:51;9.70;98.50
4635;DHT22;2330;48.158;11.816;2024-03-02T09:50:18;9.90;98.50
4635;DHT22;2330;48.158;11.816;2024-03-02T09:52:49;10.20;98.50
4635;DHT22;2330;48.158;11.816;2024-03-02T09:55:16;10.50;98.50
4635;DHT22;2330;48.158;11.816;2024-03-02T09:57:46;10.40;98.50
4635;DHT22;2330;48.158;11.816;2024-03-02T10:00:15;10.50;98.50
4635;DHT22;2330;48.158;11.816;2024-03-02T10:02:42;10.90;98.50
4635;DHT22;2330;48.158;11.816;2024-03-02T10:05:10;11.10;98.50
4635;DHT22;2330;48.158;11.816;2024-03-02T10:07:37;11.20;98.50
4635;DHT22;2330;48.158;11.816;2024-03-02T10:10:14;11.30;98.50
4635;DHT22;2330;48.158;11.816;2024-03-02T10:12:42;10.90;98.50
4635;DHT22;2330;48.158;11.816;2024-03-02T10:15:09;10.80;98.50
4635;DHT22;2330;48.158;11.816;2024-03-02T10:17:36;10.90;98.50
4635;DHT22;2330;48.158;11.816;2024-03-02T10:20:26;11.00;98.50
4635;DHT22;2330;48.158;11.816;2024-03-02T10:23:14;11.20;98.50
4635;DHT22;2330;48.158;11.816;2024-03-02T10:25:43;11.40;98.50
4635;DHT22;2330;48.158;11.816;2024-03-02T10:28:23;11.60;98.50
4635;DHT22;2330;48.158;11.816;2024-03-02T10:30:50;11.60;98.50
4635;DHT22;2330;48.158;11.816;2024-03-02T10:33:19;11.70;98.50
4635;DHT22;2330;48.158;11.816;2024-03-02T10:35:48;11.90;98.50
4635;DHT22;2330;48.158;11.816;2024-03-02T10:38:17;12.20;98.50
4635;DHT22;2330;48.158;11.816;2024-03-02T10:40:47;11.80;98.50
4635;DHT22;2330;48.158;11.816;2024-03-02T10:43:15;11.40;98.50
4635;DHT22;2330;48.158;11.816;2024-03-02T10:45:42;11.50;98.50
4635;DHT22;2330;48.158;11.816;2024-03-02T10:48:09;11.10;98.50
4635;DHT22;2330;48.158;11.816;2024-03-02T10:50:36;10.80;98.50
4635;DHT22;2330;48.158;11.816;2024-03-02T10:53:03;11.10;98.50
4635;DHT22;2330;48.158;11.816;2024-03-02T10:55:32;11.50;98.50
4635;DHT22;2330;48.158;11.816;2024-03-02T10:58:01;11.90;98.50
4635;DHT22;2330;48.158;11.816;2024-03-02T11:00:33;12.20;98.50
4635;DHT22;2330;48.158;11.816;2024-03-02T11:03:05;12.10;98.50
4635;DHT22;2330;48.158;11.816;2024-03-02T11:05:40;12.40;98.50
4635;DHT22;2330;48.158;11.816;2024-03-02T11:08:11;12.70;98.50
4635;DHT22;2330;48.158;11.816;2024-03-02T11:10:51;12.90;98.50
4635;DHT22;2330;48.158;11.816;2024-03-02T11:13:32;12.80;98.50
4635;DHT22;2330;48.158;11.816;2024-03-02T11:16:27;13.10;98.50
4635;DHT22;2330;48.158;11.816;2024-03-02T11:18:53;13.10;98.50
4635;DHT22;2330;48.158;11.816;2024-03-02T11:21:20;13.20;98.50
4635;DHT22;2330;48.158;11.816;2024-03-02T11:23:47;13.40;98.50
4635;DHT22;2330;48.158;11.816;2024-03-02T11:26:21;13.50;98.50
4635;DHT22;2330;48.158;11.816;2024-03-02T11:28:48;13.50;98.50
4635;DHT22;2330;48.158;11.816;2024-03-02T11:31:15;13.20;98.50
4635;DHT22;2330;48.158;11.816;2024-03-02T11:33:42;12.90;98.50
4635;DHT22;2330;48.158;11.816;2024-03-02T11:36:09;12.90;98.50
4635;DHT22;2330;48.158;11.816;2024-03-02T11:38:38;12.70;98.50
4635;DHT22;2330;48.158;11.816;2024-03-02T11:41:07;12.70;98.50
4635;DHT22;2330;48.158;11.816;2024-03-02T11:43:39;12.70;98.50
4635;DHT22;2330;48.158;11.816;2024-03-02T11:46:06;12.70;98.50
4635;DHT22;2330;48.158;11.816;2024-03-02T11:48:39;13.00;98.50
4635;DHT22;2330;48.158;11.816;2024-03-02T11:51:06;13.20;98.50
4635;DHT22;2330;48.158;11.816;2024-03-02T11:53:33;13.20;98.50
4635;DHT22;2330;48.158;11.816;2024-03-02T11:56:02;13.30;98.50
4635;DHT22;2330;48.158;11.816;2024-03-02T11:58:30;13.10;98.50
4635;DHT22;2330;48.158;11.816;2024-03-02T12:00:57;13.20;98.50
4635;DHT22;2330;48.158;11.816;2024-03-02T12:03:25;13.50;98.50
4635;DHT22;2330;48.158;11.816;2024-03-02T12:05:53;13.70;98.50
4635;DHT22;2330;48.158;11.816;2024-03-02T12:08:21;13.80;98.50
4635;DHT22;2330;48.158;11.816;2024-03-02T12:11:01;14.00;98.50
4635;DHT22;2330;48.158;11.816;2024-03-02T12:13:30;13.90;98.50
4635;DHT22;2330;48.158;11.816;2024-03-02T12:15:58;13.90;98.50
4635;DHT22;2330;48.158;11.816;2024-03-02T12:18:25;14.00;98.50
4635;DHT22;2330;48.158;11.816;2024-03-02T12:20:52;14.00;98.50
4635;DHT22;2330;48.158;11.816;2024-03-02T12:23:23;13.80;98.50
4635;DHT22;2330;48.158;11.816;2024-03-02T12:25:50;13.50;98.50
4635;DHT22;2330;48.158;11.816;2024-03-02T12:28:17;13.60;98.50
4635;DHT22;2330;48.158;11.816;2024-03-02T12:30:44;13.60;98.50
4635;DHT22;2330;48.158;11.816;2024-03-02T12:33:11;13.80;98.50
4635;DHT22;2330;48.158;11.816;2024-03-02T12:35:40;13.80;98.50
4635;DHT22;2330;48.158;11.816;2024-03-02T12:38:07;13.70;98.50
4635;DHT22;2330;48.158;11.816;2024-03-02T12:40:35;13.80;98.50
4635;DHT22;2330;48.158;11.816;2024-03-02T12:43:05;13.80;98.50
4635;DHT22;2330;48.158;11.816;2024-03-02T12:45:33;13.60;98.50
4635;DHT22;2330;48.158;11.816;2024-03-02T12:48:00;13.80;98.50
4635;DHT22;2330;48.158;11.816;2024-03-02T12:50:28;14.00;98.50
4635;DHT22;2330;48.158;11.816;2024-03-02T12:52:55;14.30;98.50
4635;DHT22;2330;48.158;11.816;2024-03-02T12:55:23;14.40;98.50
4635;DHT22;2330;48.158;11.816;2024-03-02T12:57:51;14.50;98.50
4635;DHT22;2330;48.158;11.816;2024-03-02T13:00:20;14.60;98.50
4635;DHT22;2330;48.158;11.816;2024-03-02T13:02:48;14.40;98.50
4635;DHT22;2330;48.158;11.816;2024-03-02T13:05:17;14.00;98.50
4635;DHT22;2330;48.158;11.816;2024-03-02T13:07:44;13.80;98.50
4635;DHT22;2330;48.158;11.816;2024-03-02T13:10:13;13.80;98.50
4635;DHT22;2330;48.158;11.816;2024-03-02T13:12:40;13.70;98.50
4635;DHT22;2330;48.158;11.816;2024-03-02T13:15:08;13.70;98.50
4635;DHT22;2330;48.158;11.816;2024-03-02T13:17:35;13.90;98.50
4635;DHT22;2330;48.158;11.816;2024-03-02T13:20:05;14.00;98.50
4635;DHT22;2330;48.158;11.816;2024-03-02T13:22:35;14.40;98.50
4635;DHT22;2330;48.158;11.816;2024-03-02T13:25:02;14.40;98.50
4635;DHT22;2330;48.158;11.816;2024-03-02T13:27:33;14.40;98.50
4635;DHT22;2330;48.158;11.816;2024-03-02T13:30:03;14.40;98.50
4635;DHT22;2330;48.158;11.816;2024-03-02T13:32:32;14.50;98.50
4635;DHT22;2330;48.158;11.816;2024-03-02T13:34:59;14.70;98.50
4635;DHT22;2330;48.158;11.816;2024-03-02T13:37:26;14.50;98.50
4635;DHT22;2330;48.158;11.816;2024-03-02T13:39:53;14.50;98.50
4635;DHT22;2330;48.158;11.816;2024-03-02T13:42:20;14.40;98.50
4635;DHT22;2330;48.158;11.816;2024-03-02T13:44:47;14.20;98.50
4635;DHT22;2330;48.158;11.816;2024-03-02T13:47:16;14.40;98.50
4635;DHT22;2330;48.158;11.816;2024-03-02T13:49:43;14.50;98.50
4635;DHT22;2330;48.158;11.816;2024-03-02T13:52:12;14.40;98.20
4635;DHT22;2330;48.158;11.816;2024-03-02T13:54:45;14.00;98.50
4635;DHT22;2330;48.158;11.816;2024-03-02T13:57:13;14.20;98.50
4635;DHT22;2330;48.158;11.816;2024-03-02T13:59:41;14.10;98.20
4635;DHT22;2330;48.158;11.816;2024-03-02T14:02:08;14.30;98.50
4635;DHT22;2330;48.158;11.816;2024-03-02T14:04:36;14.50;97.60
4635;DHT22;2330;48.158;11.816;2024-03-02T14:07:03;14.70;97.90
4635;DHT22;2330;48.158;11.816;2024-03-02T14:09:30;14.70;98.40
4635;DHT22;2330;48.158;11.816;2024-03-02T14:11:57;14.80;97.10
4635;DHT22;2330;48.158;11.816;2024-03-02T14:14:27;14.80;98.30
4635;DHT22;2330;48.158;11.816;2024-03-02T14:16:57;15.00;97.50
4635;DHT22;2330;48.158;11.816;2024-03-02T14:19:26;14.60;97.20
4635;DHT22;2330;48.158;11.816;2024-03-02T14:21:54;14.70;96.40
4635;DHT22;2330;48.158;11.816;2024-03-02T14:24:21;14.30;96.40
4635;DHT22;2330;48.158;11.816;2024-03-02T14:26:50;14.40;96.30
4635;DHT22;2330;48.158;11.816;2024-03-02T14:29:19;14.10;96.80
4635;DHT22;2330;48.158;11.816;2024-03-02T14:31:46;14.10;97.40
4635;DHT22;2330;48.158;11.816;2024-03-02T14:34:15;14.20;98.50
4635;DHT22;2330;48.158;11.816;2024-03-02T14:36:42;14.50;98.50
4635;DHT22;2330;48.158;11.816;2024-03-02T14:39:12;14.40;98.40
4635;DHT22;2330;48.158;11.816;2024-03-02T14:41:38;14.60;98.30
4635;DHT22;2330;48.158;11.816;2024-03-02T14:44:05;14.70;98.50
4635;DHT22;2330;48.158;11.816;2024-03-02T14:46:33;14.70;98.50
4635;DHT22;2330;48.158;11.816;2024-03-02T14:49:00;14.60;98.50
4635;DHT22;2330;48.158;11.816;2024-03-02T14:51:27;14.80;98.50
4635;DHT22;2330;48.158;11.816;2024-03-02T14:53:56;14.80;98.50
4635;DHT22;2330;48.158;11.816;2024-03-02T14:56:23;14.40;98.50
4635;DHT22;2330;48.158;11.816;2024-03-02T14:58:50;14.40;98.50
4635;DHT22;2330;48.158;11.816;2024-03-02T15:01:17;14.30;98.50
4635;DHT22;2330;48.158;11.816;2024-03-02T15:03:44;13.80;98.10
4635;DHT22;2330;48.158;11.816;2024-03-02T15:06:18;13.50;98.50
4635;DHT22;2330;48.158;11.816;2024-03-02T15:08:45;13.50;98.50
4635;DHT22;2330;48.158;11.816;2024-03-02T15:11:14;13.60;98.50
4635;DHT22;2330;48.158;11.816;2024-03-02T15:13:42;13.70;98.50
4635;DHT22;2330;48.158;11.816;2024-03-02T15:16:09;13.60;98.50
4635;DHT22;2330;48.158;11.816;2024-03-02T15:18:36;13.60;98.50
4635;DHT22;2330;48.158;11.816;2024-03-02T15:21:03;13.60;98.50
4635;DHT22;2330;48.158;11.816;2024-03-02T15:23:29;13.50;98.50
4635;DHT22;2330;48.158;11.816;2024-03-02T15:25:56;13.50;98.50
4635;DHT22;2330;48.158;11.816;2024-03-02T15:28:23;13.60;98.50
4635;DHT22;2330;48.158;11.816;2024-03-02T15:30:50;13.50;98.50
4635;DHT22;2330;48.158;11.816;2024-03-02T15:33:21;13.40;98.50
4635;DHT22;2330;48.158;11.816;2024-03-02T15:35:51;13.50;98.50
4635;DHT22;2330;48.158;11.816;2024-03-02T15:38:18;13.60;98.50
4635;DHT22;2330;48.158;11.816;2024-03-02T15:40:58;13.50;98.50
4635;DHT22;2330;48.158;11.816;2024-03-02T15:43:25;13.30;98.50
4635;DHT22;2330;48.158;11.816;2024-03-02T15:45:51;13.20;98.50
4635;DHT22;2330;48.158;11.816;2024-03-02T15:48:18;13.20;98.50
4635;DHT22;2330;48.158;11.816;2024-03-02T15:50:45;13.10;98.50
4635;DHT22;2330;48.158;11.816;2024-03-02T15:53:12;13.00;98.50
4635;DHT22;2330;48.158;11.816;2024-03-02T15:55:40;12.90;98.50
4635;DHT22;2330;48.158;11.816;2024-03-02T15:58:07;12.90;98.50
4635;DHT22;2330;48.158;11.816;2024-03-02T16:00:34;12.90;98.50
4635;DHT22;2330;48.158;11.816;2024-03-02T16:03:02;12.80;98.50